Stevensville, MT

8:27 PM MST on February 05, 2016 (GMT -0700)
South Stevensville | | Change Station
CLOSE
Current Station
Personal Weather Station
Location: Stevensville, MT
Elevation: 3579 ft
Nearby Weather Stations

Elev 3579 ft 46.47 °N, 114.06 °W | Updated 14 seconds ago

Partly Cloudy
Partly Cloudy
36.3 °F
Feels Like 36 °F
N
0.0
Wind Variable Wind from ESE
Gusts 0.0 mph

Today
High -- | Low -- °F
--% Chance of Precip.
Yesterday
High -- | Low -- °F
Precip. -- in
Pressure 30.36 in
Visibility 10.0 miles
Clouds Clear
Windchill 36 °F
Dew Point 23 °F
Humidity 57%
Rainfall 0.00 in
Snow Depth Not available.
7:54 AM 5:45 PM
Waning Crescent, 8% visible
METAR KMSO 060253Z 00000KT 10SM CLR M02/M04 A3026 RMK AO2 SLP280 T10171044 58014 $
Pressure 30.36 in
Visibility 10.0 miles
Clouds Clear
Windchill 36 °F
Dew Point 23 °F
Humidity 57%
Rainfall 0.00 in
Snow Depth Not available.
7:54 AM 5:45 PM
Waning Crescent, 8% visible
METAR KMSO 060253Z 00000KT 10SM CLR M02/M04 A3026 RMK AO2 SLP280 T10171044 58014 $

10-Day Weather Forecast

Almanac

Astronomy

Feb. 05, 2016 Rise Set
Actual Time
Civil Twilight
Nautical Twilight
Astronomical Twilight
Moon
Length of Visible Light
Length of Day
Tomorrow will be .
, % of the Moon is Illuminated

Today's Extremes

State Highs State Lows

Community

WunderPhotos

Upload Photos

1,890,918 photos uploaded!

WunderBlog® & News

Nearby

Air Quality

  Air Quality AQ Index Pollutant
Not available.

Snow Depth

Station Depth Elevation

Earthquake Activity

City Distance Mag. Time & Date
Minimum magnitude displayed is 2.5.

Coastal Water Temperatures

Place Temperature

Stations

Nearby Weather Stations

Station Location Temp. Windchill Dew Point Humidity Wind Precip. Elev Updated Type
                   

Watches & Warnings

There are currently no watches in effect.